CheckWX is a tool to help pilots better visualize weather data.  It is not intended as a substitute for an official pre-flight weather briefing.

05:15:41 UTC

SCAT TAF
Desierto de Atacama Airport
Copiapo, Chile
TAF SCAT 192230Z 2000/2024 30004KT 9999 FEW020 TN16/2006Z TX21/2018Z BECMG 2003/2005 33004KT OVC015 BECMG 2012/2014 36010KT OVC020 BECMG 2016/2018 33010KT BKN020 BECMG 2022/2024 30004KT

Mar-20@
00:00 UTC

Mar-20 @ 00:00 UTC

Mar-20@
03:00 UTC

Mar-20 @ 03:00 UTC

TAF SCAT 192230Z 2000/2024 30004KT 9999 FEW020 TN16/2006Z TX21/2018Z

Expired

Wind
  • 300° at 4 KTS
Cloud Levels
  • Few at 2,000' AGL

Mar-20@
03:00 UTC

Mar-20 @ 03:00 UTC

Mar-20@
12:00 UTC

Mar-20 @ 12:00 UTC

BECMG 2003/2005 33004KT OVC015

Becoming

Becoming Conditions expected by Wed, Mar 20, 2019 @ 05:00 UTC

Wind
  • 330° at 4 KTS
Cloud Levels
  • Overcast at 1,500' AGL

Mar-20@
12:00 UTC

Mar-20 @ 12:00 UTC

Mar-20@
16:00 UTC

Mar-20 @ 16:00 UTC

BECMG 2012/2014 36010KT OVC020

Becoming

Becoming Conditions expected by Wed, Mar 20, 2019 @ 14:00 UTC

Wind
  • 360° at 10 KTS
Cloud Levels
  • Overcast at 2,000' AGL

Mar-20@
16:00 UTC

Mar-20 @ 16:00 UTC

Mar-20@
22:00 UTC

Mar-20 @ 22:00 UTC

BECMG 2016/2018 33010KT BKN020

Becoming

Becoming Conditions expected by Wed, Mar 20, 2019 @ 18:00 UTC

Wind
  • 330° at 10 KTS
Cloud Levels
  • Broken at 2,000' AGL

Mar-20@
22:00 UTC

Mar-20 @ 22:00 UTC

Mar-21@
00:00 UTC

Mar-21 @ 00:00 UTC

BECMG 2022/2024 30004KT

Becoming

Becoming Conditions expected by Thu, Mar 21, 2019 @ 00:00 UTC

Wind
  • 300° at 4 KTS
Cloud Levels
  • Broken at 2,000' AGL